createdAt,value
2023-05-14T00:00:12.374Z,94.1155
2023-05-14T00:01:13.148Z,94.4284
2023-05-14T00:02:13.849Z,94.5894
2023-05-14T00:03:16.053Z,93.9559
2023-05-14T00:04:16.231Z,94.4652
2023-05-14T00:05:16.911Z,94.8120
2023-05-14T00:06:16.933Z,95.0106
2023-05-14T00:07:17.592Z,95.1444
2023-05-14T00:08:18.297Z,95.3420
2023-05-14T00:10:18.542Z,94.6310
2023-05-14T00:11:18.551Z,95.0764
2023-05-14T00:12:18.603Z,95.4690
2023-05-14T00:13:18.634Z,95.5877
2023-05-14T00:15:19.474Z,95.3273
2023-05-14T00:16:19.558Z,95.1557
2023-05-14T00:18:20.520Z,95.1849
2023-05-14T00:19:41.551Z,95.1924
2023-05-14T00:20:23.020Z,95.1786
2023-05-14T00:21:23.943Z,95.1782
2023-05-14T00:22:24.582Z,95.2389
2023-05-14T00:23:24.636Z,95.2739
2023-05-14T00:24:25.314Z,95.3576
2023-05-14T00:25:25.372Z,95.3298
2023-05-14T00:26:25.401Z,95.3523
2023-05-14T00:27:26.033Z,95.3809
2023-05-14T00:28:26.078Z,95.4486
2023-05-14T00:29:26.121Z,95.4944
2023-05-14T00:30:26.190Z,95.4957
2023-05-14T00:31:26.883Z,95.6358
2023-05-14T00:32:26.914Z,95.7536
2023-05-14T00:33:27.767Z,95.6510
2023-05-14T00:34:28.450Z,95.5702
2023-05-14T00:35:28.484Z,95.5790
2023-05-14T00:36:29.073Z,95.6383
2023-05-14T00:37:30.061Z,95.7891
2023-05-14T00:38:30.090Z,95.7822
2023-05-14T00:39:30.891Z,95.6753
2023-05-14T00:40:31.988Z,95.6214
2023-05-14T00:41:32.053Z,95.4344
2023-05-14T00:42:32.697Z,95.4295
2023-05-14T00:43:33.650Z,95.4008
2023-05-14T00:45:36.901Z,95.5251
2023-05-14T00:46:37.883Z,95.6148
2023-05-14T00:47:37.947Z,95.6220
2023-05-14T00:48:38.767Z,95.6938
2023-05-14T00:49:38.742Z,95.7057
2023-05-14T00:50:39.472Z,95.7594
2023-05-14T00:51:40.612Z,95.7984
2023-05-14T00:52:41.344Z,95.7834
2023-05-14T00:53:41.404Z,95.8292
2023-05-14T00:54:41.430Z,96.0025
2023-05-14T00:55:41.495Z,95.8638
2023-05-14T00:56:42.077Z,95.6888
2023-05-14T00:57:43.029Z,95.6328
2023-05-14T00:58:43.061Z,95.6058
2023-05-14T00:59:43.138Z,95.4723
2023-05-14T01:00:43.267Z,95.1843
2023-05-14T01:01:43.957Z,94.9577
2023-05-14T01:02:44.065Z,94.9026
2023-05-14T01:03:44.245Z,94.8772
2023-05-14T01:04:44.968Z,94.8236
2023-05-14T01:05:44.985Z,94.8166
2023-05-14T01:06:45.664Z,94.8335
2023-05-14T01:07:46.334Z,94.8188
2023-05-14T01:08:47.057Z,94.7017
2023-05-14T01:09:47.101Z,94.7078
2023-05-14T01:10:47.155Z,94.5443
2023-05-14T01:11:47.864Z,94.4764
2023-05-14T01:12:47.908Z,94.8040
2023-05-14T01:13:48.993Z,94.9542
2023-05-14T01:14:49.930Z,95.1035
2023-05-14T01:15:49.954Z,95.3417
2023-05-14T01:16:50.081Z,95.3359
2023-05-14T01:17:50.158Z,94.9551
2023-05-14T01:18:50.266Z,95.0285
2023-05-14T01:19:50.341Z,94.7466
2023-05-14T01:20:50.384Z,94.3075
2023-05-14T01:21:50.427Z,94.0578
2023-05-14T01:22:50.452Z,94.1199
2023-05-14T01:23:50.523Z,94.0389
2023-05-14T01:24:50.558Z,93.9089
2023-05-14T01:25:50.578Z,94.0755
2023-05-14T01:26:50.626Z,94.1744
2023-05-14T01:27:51.006Z,94.2282
2023-05-14T01:28:51.104Z,94.3069
2023-05-14T01:29:51.114Z,94.4967
2023-05-14T01:30:51.774Z,94.7236
2023-05-14T01:31:51.833Z,94.7748
2023-05-14T01:32:52.482Z,94.8352
2023-05-14T01:33:53.307Z,94.8879
2023-05-14T01:34:53.612Z,94.6125
2023-05-14T01:35:54.356Z,94.5511
2023-05-14T01:36:54.699Z,94.5292
2023-05-14T01:37:54.739Z,94.4505
2023-05-14T01:38:55.926Z,94.4053
2023-05-14T01:39:55.998Z,94.3311
2023-05-14T01:40:56.426Z,94.5290
2023-05-14T01:41:57.187Z,94.7981
2023-05-14T01:42:57.253Z,94.9497
2023-05-14T01:43:58.066Z,95.2536
2023-05-14T01:44:58.764Z,95.3312
2023-05-14T01:45:58.816Z,95.2269
2023-05-14T01:46:59.492Z,94.8504
2023-05-14T01:48:00.796Z,94.7739
2023-05-14T01:49:00.856Z,94.8678
2023-05-14T01:50:01.491Z,95.0786
2023-05-14T01:51:01.692Z,95.2687
2023-05-14T01:53:02.982Z,94.9353
2023-05-14T01:54:03.008Z,94.9657
2023-05-14T01:55:03.691Z,95.2685
2023-05-14T01:56:04.302Z,95.2253
2023-05-14T01:57:05.063Z,95.0298
2023-05-14T01:58:06.556Z,94.7608
2023-05-14T01:59:06.597Z,94.8276
2023-05-14T02:00:07.258Z,95.2110
2023-05-14T02:01:08.603Z,95.3067
2023-05-14T02:07:13.546Z,95.8733
2023-05-14T02:08:13.583Z,96.0087
2023-05-14T02:09:13.612Z,96.2372
2023-05-14T02:10:14.243Z,96.2868
2023-05-14T02:11:14.280Z,96.0840
2023-05-14T02:13:15.142Z,95.5162
2023-05-14T02:14:16.276Z,95.3470
2023-05-14T02:19:23.936Z,95.5268
2023-05-14T02:20:24.624Z,95.6090
2023-05-14T02:21:25.189Z,95.7685
2023-05-14T02:22:26.039Z,95.6675
2023-05-14T02:23:37.983Z,95.3903
2023-05-14T02:24:26.703Z,95.4625
2023-05-14T02:25:27.548Z,95.5199
2023-05-14T02:26:28.218Z,95.6123
2023-05-14T02:27:28.671Z,95.6083
2023-05-14T02:28:29.322Z,95.6360
2023-05-14T02:29:29.424Z,95.9384
2023-05-14T02:30:29.817Z,95.8950
2023-05-14T02:31:30.898Z,95.6451
2023-05-14T02:32:31.250Z,95.5251
2023-05-14T02:33:32.452Z,95.5012
2023-05-14T02:34:33.484Z,95.3531
2023-05-14T02:35:33.559Z,95.2759
2023-05-14T02:36:34.404Z,95.0469
2023-05-14T02:37:35.630Z,95.0732
2023-05-14T02:38:35.692Z,95.2227
2023-05-14T02:39:36.361Z,95.3150
2023-05-14T02:40:36.504Z,95.4661
2023-05-14T02:41:37.933Z,95.5695
2023-05-14T02:42:38.856Z,95.7836
2023-05-14T02:43:38.911Z,95.9792
2023-05-14T02:44:40.416Z,96.2222
2023-05-14T02:45:41.169Z,96.4618
2023-05-14T02:46:41.616Z,96.5336
2023-05-14T02:47:42.607Z,96.6399
2023-05-14T02:48:43.785Z,96.6425
2023-05-14T02:49:43.835Z,96.6574
2023-05-14T02:50:44.703Z,96.7140
2023-05-14T02:51:44.968Z,96.7514
2023-05-14T02:52:45.109Z,96.7979
2023-05-14T02:53:45.344Z,96.8335
2023-05-14T02:54:46.420Z,96.8398
2023-05-14T02:55:46.513Z,96.8170
2023-05-14T02:56:47.375Z,96.8226
2023-05-14T02:57:47.633Z,96.8762
2023-05-14T02:59:48.268Z,96.8734
2023-05-14T03:00:48.854Z,96.8245
2023-05-14T03:01:50.400Z,96.8707
2023-05-14T03:02:51.124Z,96.8517
2023-05-14T03:03:51.883Z,96.8249
2023-05-14T03:04:52.717Z,96.9008
2023-05-14T03:05:52.927Z,96.9811
2023-05-14T03:06:53.575Z,96.9859
2023-05-14T03:07:54.526Z,96.9851
2023-05-14T03:08:54.754Z,97.0133
2023-05-14T03:09:55.512Z,96.9519
2023-05-14T03:10:56.327Z,96.8754
2023-05-14T03:11:56.779Z,96.8172
2023-05-14T03:12:57.638Z,96.8393
2023-05-14T03:13:57.693Z,96.7942
2023-05-14T03:14:58.998Z,96.7458
2023-05-14T03:15:59.939Z,96.5716
2023-05-14T03:17:00.841Z,96.5412
2023-05-14T03:18:01.123Z,96.6568
2023-05-14T03:19:01.322Z,96.7040
2023-05-14T03:20:01.968Z,96.6980
2023-05-14T03:21:02.824Z,96.6245
2023-05-14T03:22:02.882Z,96.6018
2023-05-14T03:23:03.139Z,96.6741
2023-05-14T03:24:03.375Z,96.7698
2023-05-14T03:25:04.249Z,96.8116
2023-05-14T03:26:04.576Z,96.8738
2023-05-14T03:27:04.638Z,96.9707
2023-05-14T03:28:05.461Z,97.0554
2023-05-14T03:29:05.516Z,97.1613
2023-05-14T03:30:06.770Z,97.2158
2023-05-14T03:31:07.569Z,97.2505
2023-05-14T03:32:08.279Z,97.2319
2023-05-14T03:33:09.108Z,97.2901
2023-05-14T03:34:09.205Z,97.3979
2023-05-14T03:35:10.782Z,97.4658
2023-05-14T03:36:11.754Z,97.5252
2023-05-14T03:38:13.236Z,97.6425
2023-05-14T03:39:13.713Z,97.6627
2023-05-14T03:40:14.969Z,97.6980
2023-05-14T03:41:16.007Z,97.7406
2023-05-14T03:42:16.889Z,97.7811
2023-05-14T03:43:17.005Z,97.8307
2023-05-14T03:44:17.965Z,97.8913
2023-05-14T03:45:19.574Z,97.8998
2023-05-14T03:46:21.521Z,97.8919
2023-05-14T03:48:25.359Z,97.9049
2023-05-14T03:49:25.491Z,97.9187
2023-05-14T03:50:26.347Z,97.9732
2023-05-14T03:51:27.113Z,98.0056
2023-05-14T03:52:27.155Z,98.0267
2023-05-14T03:53:27.887Z,98.0500
2023-05-14T03:54:28.499Z,98.0972
2023-05-14T03:55:28.603Z,98.1342
2023-05-14T03:56:29.768Z,98.1685
2023-05-14T03:57:30.411Z,98.1870
2023-05-14T03:58:30.501Z,98.2121
2023-05-14T03:59:31.841Z,98.2338
2023-05-14T04:00:32.932Z,98.2616
2023-05-14T04:01:32.999Z,98.2633
2023-05-14T04:02:33.805Z,98.2694
2023-05-14T04:03:34.094Z,98.2576
2023-05-14T04:04:35.447Z,98.2570
2023-05-14T04:05:35.554Z,98.2469
2023-05-14T04:06:35.624Z,98.2577
2023-05-14T04:07:36.405Z,98.2399
2023-05-14T04:08:37.237Z,98.2079
2023-05-14T04:09:37.961Z,98.1678
2023-05-14T04:10:38.071Z,98.1317
2023-05-14T04:11:38.145Z,98.0864
2023-05-14T04:12:38.906Z,98.0294
2023-05-14T04:13:39.461Z,98.0065
2023-05-14T04:14:39.553Z,98.0059
2023-05-14T04:15:40.558Z,98.0058
2023-05-14T04:16:40.750Z,97.9662
2023-05-14T04:17:41.249Z,97.8553
2023-05-14T04:18:41.984Z,97.7851
2023-05-14T04:19:42.738Z,97.7267
2023-05-14T04:25:47.636Z,96.8640
2023-05-14T04:26:48.467Z,96.8552
2023-05-14T04:27:49.145Z,96.7797
2023-05-14T04:28:49.227Z,96.5476
2023-05-14T04:29:49.953Z,96.4387
2023-05-14T04:30:50.850Z,96.2091
2023-05-14T04:31:50.962Z,95.7552
2023-05-14T04:32:51.697Z,95.6872
2023-05-14T04:33:51.778Z,95.7061
2023-05-14T04:34:52.458Z,95.8419
2023-05-14T04:35:52.596Z,96.0320
2023-05-14T04:36:53.346Z,96.0177
2023-05-14T04:37:54.193Z,95.5465
2023-05-14T04:38:54.843Z,95.5452
2023-05-14T04:39:55.730Z,95.7164
2023-05-14T04:40:56.475Z,95.8125
2023-05-14T04:41:56.571Z,95.6990
2023-05-14T04:42:57.249Z,95.5856
2023-05-14T04:43:57.932Z,95.5091
2023-05-14T04:44:57.994Z,95.1786
2023-05-14T04:45:58.962Z,95.1229
2023-05-14T04:46:59.714Z,94.6571
2023-05-14T04:47:59.836Z,94.7852
2023-05-14T04:49:00.611Z,94.8232
2023-05-14T04:50:00.689Z,94.3691
2023-05-14T04:57:07.497Z,94.6776
2023-05-14T04:58:07.625Z,94.5827
2023-05-14T04:59:07.959Z,94.4093
2023-05-14T05:00:08.060Z,93.9016
2023-05-14T05:01:08.251Z,93.3641
2023-05-14T05:02:08.322Z,93.8713
2023-05-14T05:03:09.086Z,94.3428
2023-05-14T05:04:09.358Z,94.5722
2023-05-14T05:05:09.941Z,94.0037
2023-05-14T05:06:10.905Z,93.1569
2023-05-14T05:07:10.978Z,93.0942
2023-05-14T05:08:11.745Z,92.2816
2023-05-14T05:09:12.523Z,91.6804
2023-05-14T05:11:16.133Z,91.8158
2023-05-14T05:12:16.897Z,92.3085
2023-05-14T05:13:18.267Z,91.4457
2023-05-14T05:14:18.356Z,90.9391
2023-05-14T05:15:18.419Z,91.6191
2023-05-14T05:16:18.694Z,92.0718
2023-05-14T05:17:18.789Z,92.5935
2023-05-14T05:18:18.878Z,91.6564
2023-05-14T05:19:20.844Z,91.1572
2023-05-14T05:20:19.797Z,91.2821
2023-05-14T05:21:20.363Z,91.4478
2023-05-14T05:22:20.420Z,91.9400
2023-05-14T05:23:21.645Z,90.9537
2023-05-14T05:24:22.382Z,90.8264
2023-05-14T05:25:23.776Z,91.6981
2023-05-14T05:26:23.842Z,91.1066
2023-05-14T05:27:24.542Z,90.2727
2023-05-14T05:28:24.709Z,90.2352
2023-05-14T05:29:25.373Z,89.6512
2023-05-14T05:30:26.254Z,89.7366
2023-05-14T05:31:26.457Z,90.5829
2023-05-14T05:32:27.234Z,90.0498
2023-05-14T05:33:27.286Z,89.5749
2023-05-14T05:34:28.075Z,89.5491
2023-05-14T05:35:28.973Z,89.4545
2023-05-14T05:36:29.079Z,89.4070
2023-05-14T05:37:30.087Z,90.0037
2023-05-14T05:38:30.189Z,89.7536
2023-05-14T05:39:30.266Z,89.3960
2023-05-14T05:40:30.402Z,89.7817
2023-05-14T05:41:30.460Z,90.2851
2023-05-14T05:42:30.866Z,90.3908
2023-05-14T05:43:31.000Z,89.2196
2023-05-14T05:44:31.107Z,89.0597
2023-05-14T05:45:31.793Z,89.0598
2023-05-14T05:46:31.950Z,90.3121
2023-05-14T05:47:32.654Z,89.9066
2023-05-14T05:48:33.309Z,89.4678
2023-05-14T05:49:33.599Z,89.1619
2023-05-14T05:50:34.329Z,87.8960
2023-05-14T05:51:35.070Z,87.8999
2023-05-14T05:52:35.777Z,87.6577
2023-05-14T05:53:35.865Z,87.4105
2023-05-14T05:54:36.627Z,87.3073
2023-05-14T05:55:37.468Z,87.1971
2023-05-14T05:56:37.553Z,86.1640
2023-05-14T05:57:37.641Z,86.1440
2023-05-14T05:58:37.980Z,85.8205
2023-05-14T05:59:38.090Z,86.1013
2023-05-14T06:00:39.076Z,85.8524
2023-05-14T06:01:40.286Z,86.2206
2023-05-14T06:03:45.268Z,87.9085
2023-05-14T06:04:44.990Z,87.3404
2023-05-14T06:05:45.210Z,87.2982
2023-05-14T06:06:45.958Z,86.7360
2023-05-14T06:07:46.692Z,87.0703
2023-05-14T06:09:46.895Z,87.8782
2023-05-14T06:10:47.634Z,89.1870
2023-05-14T06:27:15.538Z,91.3231
2023-05-14T06:28:16.231Z,90.9939
2023-05-14T06:29:17.034Z,91.0280
2023-05-14T06:31:20.477Z,90.7929
2023-05-14T06:32:21.403Z,90.6059
2023-05-14T06:33:21.586Z,91.3316
2023-05-14T06:34:22.282Z,90.9918
2023-05-14T06:35:23.002Z,90.7219
2023-05-14T06:38:26.354Z,90.5581
2023-05-14T06:39:27.021Z,90.2122
2023-05-14T06:40:27.786Z,89.7310
2023-05-14T06:41:27.848Z,89.8188
2023-05-14T06:42:27.941Z,90.2039
2023-05-14T06:43:45.739Z,90.8543
2023-05-14T06:44:29.610Z,90.7654
2023-05-14T06:45:33.189Z,90.2410
2023-05-14T06:46:33.415Z,90.5388
2023-05-14T06:47:34.267Z,90.4458
2023-05-14T06:48:35.174Z,90.0982
2023-05-14T06:50:35.806Z,90.2466
2023-05-14T06:52:37.487Z,89.4573
2023-05-14T07:03:11.796Z,89.9074
2023-05-14T07:03:53.650Z,89.9449
2023-05-14T07:04:54.187Z,89.8404
2023-05-14T07:05:54.382Z,90.0854
2023-05-14T07:06:55.078Z,89.9961
2023-05-14T07:07:55.220Z,91.1647
2023-05-14T07:08:55.897Z,91.8721
2023-05-14T07:09:56.678Z,92.1493
2023-05-14T07:10:56.759Z,91.8650
2023-05-14T07:11:56.840Z,91.5874
2023-05-14T07:12:57.514Z,91.2495
2023-05-14T07:13:58.249Z,91.5000
2023-05-14T07:14:58.367Z,91.2825
2023-05-14T07:15:58.466Z,91.2198
2023-05-14T07:16:58.639Z,91.5276
2023-05-14T07:17:59.423Z,91.3447
2023-05-14T07:18:59.557Z,91.8348
2023-05-14T07:20:00.294Z,92.2730
2023-05-14T07:21:00.427Z,91.8407
2023-05-14T07:22:01.155Z,92.5777
2023-05-14T07:23:01.233Z,93.1963
2023-05-14T07:24:01.315Z,93.3755
2023-05-14T07:25:02.123Z,93.5062
2023-05-14T07:26:02.209Z,92.8409
2023-05-14T07:27:03.009Z,92.1972
2023-05-14T07:28:03.739Z,92.3873
2023-05-14T07:29:04.594Z,92.1919
2023-05-14T07:31:05.947Z,89.9286
2023-05-14T07:32:06.034Z,89.2284
2023-05-14T07:33:06.813Z,89.0363
2023-05-14T07:34:07.707Z,89.0575
2023-05-14T07:35:07.830Z,88.0423
2023-05-14T07:36:08.546Z,87.7734
2023-05-14T07:37:08.626Z,86.4324
2023-05-14T07:38:09.422Z,86.6364
2023-05-14T07:39:09.512Z,87.0379
2023-05-14T07:40:10.290Z,87.1788
2023-05-14T07:41:10.409Z,88.0385
2023-05-14T07:42:10.448Z,88.0455
2023-05-14T07:43:10.544Z,88.3907
2023-05-14T07:44:10.640Z,87.7922
2023-05-14T07:45:10.932Z,86.9928
2023-05-14T07:46:11.105Z,85.8253
2023-05-14T07:47:11.704Z,84.9719
2023-05-14T07:48:12.186Z,82.9752
2023-05-14T07:49:13.092Z,82.0104
2023-05-14T07:50:14.341Z,81.0029
2023-05-14T07:51:16.186Z,81.2003
2023-05-14T07:52:23.281Z,81.4183
2023-05-14T08:00:28.678Z,76.1325
2023-05-14T08:01:28.870Z,78.0620
2023-05-14T08:02:29.016Z,79.8934
2023-05-14T08:03:42.442Z,81.0911
2023-05-14T08:04:31.708Z,82.8610
2023-05-14T08:05:31.786Z,81.7518
2023-05-14T08:06:32.517Z,79.8187
2023-05-14T08:07:35.159Z,78.0601
2023-05-14T08:08:35.259Z,77.7663
2023-05-14T08:09:35.336Z,79.6065
2023-05-14T08:10:36.187Z,81.2473
2023-05-14T08:11:36.332Z,80.5626
2023-05-14T08:12:36.444Z,78.0745
2023-05-14T08:13:37.206Z,77.1476
2023-05-14T08:14:38.063Z,76.9076
2023-05-14T08:15:38.155Z,78.2160
2023-05-14T08:16:38.887Z,78.4047
2023-05-14T08:17:39.045Z,78.0481
2023-05-14T08:19:40.555Z,80.6153
2023-05-14T08:20:40.640Z,82.4032
2023-05-14T08:21:41.484Z,81.4135
2023-05-14T08:22:41.578Z,78.6649
2023-05-14T08:23:42.554Z,78.2886
2023-05-14T08:24:42.654Z,77.3053
2023-05-14T08:25:42.802Z,76.2344
2023-05-14T08:26:42.866Z,79.6275
2023-05-14T08:27:42.983Z,82.2844
2023-05-14T08:28:43.931Z,81.9848
2023-05-14T08:29:44.030Z,82.9481
2023-05-14T08:30:44.801Z,82.1124
2023-05-14T08:31:44.875Z,81.8557
2023-05-14T08:32:45.579Z,81.9437
2023-05-14T08:33:47.035Z,82.2442
2023-05-14T08:34:48.510Z,81.7691
2023-05-14T08:35:49.252Z,81.0031
2023-05-14T08:36:53.667Z,81.3557
2023-05-14T08:40:54.148Z,80.9900
2023-05-14T08:41:55.161Z,79.1144
2023-05-14T08:42:55.497Z,79.7061
2023-05-14T08:43:56.504Z,79.2149
2023-05-14T08:44:56.840Z,79.9107
2023-05-14T08:45:57.664Z,80.3270
2023-05-14T08:46:58.555Z,80.3899
2023-05-14T08:47:59.656Z,79.3016
2023-05-14T08:49:00.579Z,79.1775
2023-05-14T08:50:01.559Z,79.6514
2023-05-14T08:51:02.149Z,79.6602
2023-05-14T08:52:03.603Z,79.6880
2023-05-14T08:53:03.748Z,78.9790
2023-05-14T08:54:05.585Z,78.8268
2023-05-14T08:55:06.607Z,77.9199
2023-05-14T08:56:07.013Z,76.9827
2023-05-14T08:57:07.157Z,75.1736
2023-05-14T08:58:20.974Z,75.3867
2023-05-14T08:59:21.082Z,77.0434
2023-05-14T09:00:21.316Z,76.5633
2023-05-14T09:01:21.734Z,74.5518
2023-05-14T09:02:22.847Z,73.5633
2023-05-14T09:03:23.349Z,73.6864
2023-05-14T09:04:23.544Z,73.1995
2023-05-14T09:05:24.482Z,74.7008
2023-05-14T09:06:24.765Z,73.5327
2023-05-14T09:07:25.273Z,71.3581
2023-05-14T09:08:28.866Z,72.4004
2023-05-14T09:13:32.857Z,75.2008
2023-05-14T09:14:33.006Z,72.0881
2023-05-14T09:15:33.964Z,75.6022
2023-05-14T09:16:34.747Z,74.5569
2023-05-14T09:17:35.426Z,75.2552
2023-05-14T09:18:36.223Z,74.7664
2023-05-14T09:19:36.327Z,74.1990
2023-05-14T09:20:37.074Z,75.4758
2023-05-14T09:21:37.203Z,77.7904
2023-05-14T09:22:58.334Z,76.9560
2023-05-14T09:23:40.532Z,77.7446
2023-05-14T09:24:41.022Z,79.0571
2023-05-14T09:25:41.869Z,79.3145
2023-05-14T09:26:41.994Z,80.2503
2023-05-14T09:27:42.118Z,79.2565
2023-05-14T09:28:42.236Z,79.2839
2023-05-14T09:29:42.406Z,78.7839
2023-05-14T09:30:42.558Z,78.8847
2023-05-14T09:31:43.501Z,79.4204
2023-05-14T09:32:44.399Z,79.6853
2023-05-14T09:33:44.889Z,80.0587
2023-05-14T09:34:45.466Z,80.4630
2023-05-14T09:35:45.661Z,80.9017
2023-05-14T09:36:46.378Z,81.4848
2023-05-14T09:37:46.673Z,78.7986
2023-05-14T09:38:46.935Z,78.3400
2023-05-14T09:39:47.831Z,79.1568
2023-05-14T09:40:48.181Z,79.3640
2023-05-14T09:41:48.302Z,77.9497
2023-05-14T09:42:48.990Z,78.5590
2023-05-14T09:43:49.922Z,78.0993
2023-05-14T09:45:50.709Z,76.5224
2023-05-14T09:46:51.458Z,77.4173
2023-05-14T09:48:51.962Z,77.2557
2023-05-14T09:49:52.095Z,77.0246
2023-05-14T09:50:52.426Z,76.8419
2023-05-14T09:51:53.299Z,76.6361
2023-05-14T09:52:54.120Z,76.9481
2023-05-14T09:53:54.466Z,77.8155
2023-05-14T09:54:55.454Z,77.9900
2023-05-14T09:55:55.663Z,78.0325
2023-05-14T09:56:55.962Z,78.8204
2023-05-14T09:57:57.150Z,79.4062
2023-05-14T09:58:57.274Z,80.5081
2023-05-14T09:59:57.453Z,79.8306
2023-05-14T10:00:57.711Z,80.0322
2023-05-14T10:01:57.884Z,81.7385
2023-05-14T10:02:58.023Z,82.5404
2023-05-14T10:04:02.562Z,82.2291
2023-05-14T10:10:08.921Z,82.6504
2023-05-14T10:11:09.047Z,81.7106
2023-05-14T10:12:09.696Z,82.8453
2023-05-14T10:13:10.263Z,81.9188
2023-05-14T10:14:11.596Z,80.9157
2023-05-14T10:15:12.328Z,81.2721
2023-05-14T10:16:12.927Z,81.9270
2023-05-14T10:17:13.188Z,83.1201
2023-05-14T10:18:13.355Z,82.7409
2023-05-14T10:19:14.020Z,81.4977
2023-05-14T10:20:14.177Z,81.7657
2023-05-14T10:21:14.287Z,81.4855
2023-05-14T10:22:14.959Z,81.4237
2023-05-14T10:23:16.284Z,80.3888
2023-05-14T10:24:16.440Z,81.1712
2023-05-14T10:25:16.561Z,82.1517
2023-05-14T10:26:17.596Z,82.6642
2023-05-14T10:27:17.736Z,81.7467
2023-05-14T10:28:17.900Z,79.7644
2023-05-14T10:29:18.054Z,79.8018
2023-05-14T10:30:18.200Z,79.7298
2023-05-14T10:31:18.414Z,80.5013
2023-05-14T10:32:18.621Z,79.9599
2023-05-14T10:33:18.868Z,81.4434
2023-05-14T10:34:19.056Z,80.7586
2023-05-14T10:35:20.009Z,81.2256
2023-05-14T10:36:20.136Z,80.0966
2023-05-14T10:37:20.673Z,81.8228
2023-05-14T10:38:20.771Z,81.4722
2023-05-14T10:39:21.869Z,81.0230
2023-05-14T10:40:22.927Z,79.6477
2023-05-14T10:41:23.382Z,80.1936
2023-05-14T10:42:23.561Z,80.5877
2023-05-14T10:43:23.638Z,80.1776
2023-05-14T10:44:23.872Z,80.2621
2023-05-14T10:45:24.421Z,80.4476
2023-05-14T10:46:24.655Z,80.0324
2023-05-14T10:47:24.794Z,79.9228
2023-05-14T10:48:25.080Z,80.0963
2023-05-14T10:49:39.718Z,80.3432
2023-05-14T10:50:26.972Z,78.4920
2023-05-14T10:51:27.786Z,78.9753
2023-05-14T10:52:27.914Z,76.6029
2023-05-14T10:53:28.015Z,76.5730
2023-05-14T10:54:29.126Z,77.6334
2023-05-14T10:55:29.316Z,76.5530
2023-05-14T10:56:29.434Z,76.1685
2023-05-14T10:57:30.260Z,78.4482
2023-05-14T10:58:30.420Z,77.5948
2023-05-14T10:59:31.190Z,76.1118
2023-05-14T11:00:31.359Z,76.4994
2023-05-14T11:01:31.494Z,75.4212
2023-05-14T11:02:32.263Z,76.6084
2023-05-14T11:03:33.125Z,76.1972
2023-05-14T11:04:33.425Z,75.1936
2023-05-14T11:05:33.541Z,73.8122
2023-05-14T11:06:33.682Z,74.4296
2023-05-14T11:07:33.787Z,73.5793
2023-05-14T11:08:33.948Z,74.8819
2023-05-14T11:09:34.685Z,71.5328
2023-05-14T11:10:34.889Z,69.8281
2023-05-14T11:11:35.716Z,70.5570
2023-05-14T11:12:35.871Z,66.4646
2023-05-14T11:13:36.002Z,65.7447
2023-05-14T11:14:36.140Z,65.9405
2023-05-14T11:15:36.344Z,66.2046
2023-05-14T11:16:37.185Z,66.3464
2023-05-14T11:17:37.405Z,67.9284
2023-05-14T11:18:38.274Z,71.1456
2023-05-14T11:19:38.395Z,70.6461
2023-05-14T11:20:38.520Z,72.4520
2023-05-14T11:21:39.527Z,71.2105
2023-05-14T11:22:39.681Z,74.1122
2023-05-14T11:23:40.003Z,76.4256
2023-05-14T11:24:40.191Z,77.8367
2023-05-14T11:25:40.803Z,77.6136
2023-05-14T11:26:41.011Z,78.2635
2023-05-14T11:27:41.813Z,79.0297
2023-05-14T11:28:41.949Z,78.5701
2023-05-14T11:29:42.734Z,78.2028
2023-05-14T11:30:43.755Z,79.1399
2023-05-14T11:33:48.005Z,79.3071
2023-05-14T11:34:48.147Z,79.1827
2023-05-14T11:35:48.302Z,78.0339
2023-05-14T11:36:48.454Z,77.8397
2023-05-14T11:37:50.898Z,77.7108
2023-05-14T11:38:51.054Z,78.7548
2023-05-14T11:39:58.359Z,77.1459
2023-05-14T11:42:10.508Z,75.7511
2023-05-14T11:42:59.144Z,74.8052
2023-05-14T11:43:59.992Z,75.8537
2023-05-14T11:45:00.755Z,76.4670
2023-05-14T11:46:00.960Z,75.7188
2023-05-14T11:47:01.793Z,75.8026
2023-05-14T11:48:01.946Z,76.5117
2023-05-14T11:49:02.723Z,74.7265
2023-05-14T11:50:19.972Z,75.2385
2023-05-14T11:51:42.306Z,76.2361
2023-05-14T11:52:43.341Z,77.4047
2023-05-14T11:53:44.797Z,77.4585
2023-05-14T11:54:45.334Z,76.0076
2023-05-14T11:55:45.674Z,74.4037
2023-05-14T11:57:03.262Z,75.7691
2023-05-14T11:57:47.835Z,74.7645
2023-05-14T11:58:48.623Z,73.9676
2023-05-14T11:59:48.767Z,73.6324
2023-05-14T12:00:50.053Z,74.0572
2023-05-14T12:01:50.993Z,72.8350
2023-05-14T12:02:51.214Z,71.4737
2023-05-14T12:03:52.325Z,70.4409
2023-05-14T12:04:53.831Z,70.5090
2023-05-14T12:05:54.602Z,73.7290
2023-05-14T12:06:54.948Z,73.1110
2023-05-14T12:07:55.496Z,74.1631
2023-05-14T12:08:55.948Z,75.5176
2023-05-14T12:09:56.169Z,77.3621
2023-05-14T12:10:56.447Z,76.7429
2023-05-14T12:11:56.906Z,76.5508
2023-05-14T12:12:57.314Z,77.0315
2023-05-14T12:13:57.709Z,76.2879
2023-05-14T12:14:58.050Z,77.2919
2023-05-14T12:15:58.262Z,77.6382
2023-05-14T12:16:58.645Z,78.9869
2023-05-14T12:18:59.550Z,81.3884
2023-05-14T12:19:59.737Z,82.6919
2023-05-14T12:21:01.497Z,82.6435
2023-05-14T12:22:02.291Z,83.3426
2023-05-14T12:23:02.406Z,83.5965
2023-05-14T12:24:03.345Z,84.0321
2023-05-14T12:25:04.377Z,84.5712
2023-05-14T12:26:04.572Z,84.5640
2023-05-14T12:27:05.635Z,84.7392
2023-05-14T12:28:05.979Z,85.3151
2023-05-14T12:29:06.331Z,85.1546
2023-05-14T12:31:07.389Z,86.4663
2023-05-14T12:32:08.842Z,86.4392
2023-05-14T12:33:09.710Z,86.8533
2023-05-14T12:34:09.856Z,86.9141
2023-05-14T12:35:10.631Z,87.4859
2023-05-14T12:36:21.188Z,87.9660
2023-05-14T12:37:13.912Z,87.9023
2023-05-14T12:38:15.020Z,88.3746
2023-05-14T12:39:15.466Z,89.1324
2023-05-14T12:40:15.625Z,88.8072
2023-05-14T12:41:15.960Z,88.7546
2023-05-14T12:42:17.652Z,88.6432
2023-05-14T12:43:17.818Z,89.1696
2023-05-14T12:44:17.951Z,89.5285
2023-05-14T12:45:18.068Z,90.0463
2023-05-14T12:46:18.193Z,89.9784
2023-05-14T12:47:18.423Z,89.8298
2023-05-14T12:48:18.574Z,89.0978
2023-05-14T12:49:18.728Z,89.3416
2023-05-14T12:50:19.496Z,88.8956
2023-05-14T12:52:36.124Z,89.1050
2023-05-14T12:53:24.047Z,90.2647
2023-05-14T13:03:38.265Z,88.2027
2023-05-14T13:04:38.659Z,86.8240
2023-05-14T13:05:41.422Z,87.4235
2023-05-14T13:09:44.265Z,87.8290
2023-05-14T13:10:44.421Z,87.9543
2023-05-14T13:11:44.563Z,87.2491
2023-05-14T13:12:44.692Z,88.1960
2023-05-14T13:13:44.834Z,86.7720
2023-05-14T13:14:44.982Z,83.4765
2023-05-14T13:15:45.182Z,83.0567
2023-05-14T13:16:45.408Z,83.4094
2023-05-14T13:17:45.682Z,82.0344
2023-05-14T13:18:45.846Z,82.6469
2023-05-14T13:19:45.968Z,83.5660
2023-05-14T13:20:46.127Z,82.8688
2023-05-14T13:21:46.272Z,82.5442
2023-05-14T13:22:46.392Z,84.0974
2023-05-14T13:23:46.532Z,82.7917
2023-05-14T13:24:46.887Z,82.4421
2023-05-14T13:25:49.671Z,82.8130
2023-05-14T13:26:47.351Z,82.3534
2023-05-14T13:27:47.503Z,81.4064
2023-05-14T13:28:47.703Z,80.4460
2023-05-14T13:30:49.049Z,82.2442
2023-05-14T13:31:49.181Z,81.2653
2023-05-14T13:33:50.168Z,80.6809
2023-05-14T13:34:50.338Z,79.4417
2023-05-14T13:35:51.288Z,79.4150
2023-05-14T13:36:52.471Z,80.6793
2023-05-14T13:37:53.973Z,79.8104
2023-05-14T13:38:55.594Z,79.4101
2023-05-14T13:39:56.012Z,79.5315
2023-05-14T13:40:56.389Z,79.6160
2023-05-14T13:41:56.598Z,79.7327
2023-05-14T13:42:57.525Z,79.2942
2023-05-14T13:43:58.308Z,78.4384
2023-05-14T13:44:58.477Z,77.5989
2023-05-14T13:45:58.727Z,76.8836
2023-05-14T13:46:58.916Z,77.5008
2023-05-14T13:47:59.115Z,77.1147
2023-05-14T13:48:59.323Z,77.1543
2023-05-14T13:51:00.188Z,75.2541
2023-05-14T13:52:00.359Z,77.1691
2023-05-14T13:53:01.398Z,79.2336
2023-05-14T13:54:02.223Z,80.1089
2023-05-14T13:55:02.385Z,79.6877
2023-05-14T13:56:03.234Z,79.8368
2023-05-14T13:57:03.470Z,78.6090
2023-05-14T13:58:04.070Z,77.3211
2023-05-14T13:59:04.845Z,75.6808
2023-05-14T14:00:05.751Z,74.0476